Time;durP1;ratioP1;P1;durP2;ratioP2;P2;SDS_P1;SDS_P2;PMS_P1;PMS_P2;Temp;Humidity;BMP_temperature;BMP_pressure;BME280_temperature;BME280_humidity;BME280_pressure;Samples;Min_cycle;Max_cycle;Signal;HPM_P1;HPM_P2
2022/10/07 00:00:21;;;;;;;;;;;;;;;;;;2132833;27;19927;-44
2022/10/07 00:01:22;;;;;;;;;;;;;;;;;;2132973;27;20017;-44
2022/10/07 00:02:23;;;;;;;;;;;;;;;;;;2132978;27;19923;-43
2022/10/07 00:03:24;;;;;;;;;;;;;;;;;;2132913;27;20299;-44
2022/10/07 00:04:25;;;;;;;;;;;;;;;;;;2132925;27;19927;-44
2022/10/07 00:05:26;;;;;;;;;;;;;;;;;;2132823;27;19923;-43
2022/10/07 00:06:27;;;;;;;;;;;;;;;;;;2132849;27;19923;-44
2022/10/07 00:07:28;;;;;;;;;;;;;;;;;;2132769;27;20007;-43
2022/10/07 00:08:29;;;;;;;;;;;;;;;;;;2132756;27;20019;-44
2022/10/07 00:09:30;;;;;;;;;;;;;;;;;;2132919;27;19923;-42
2022/10/07 00:10:31;;;;;;;;;;;;;;;;;;2132870;27;19933;-42
2022/10/07 00:11:32;;;;;;;;;;;;;;;;;;2132474;27;20275;-41
2022/10/07 00:12:32;;;;;;;;;;;;;;;;;;2132768;27;20025;-42
2022/10/07 00:13:35;;;;;;;;;;;;;;;;;;2132799;27;20014;-42
2022/10/07 00:14:35;;;;;;;;;;;;;;;;;;2132696;27;19923;-42
2022/10/07 00:15:36;;;;;;;;;;;;;;;;;;2132717;27;19923;-42
2022/10/07 00:16:37;;;;;;;;;;;;;;;;;;2132747;27;19930;-42
2022/10/07 00:17:38;;;;;;;;;;;;;;;;;;2132760;27;19924;-42
2022/10/07 00:18:39;;;;;;;;;;;;;;;;;;2132749;27;19978;-42
2022/10/07 00:19:40;;;;;;;;;;;;;;;;;;2132815;27;19969;-42
2022/10/07 00:20:41;;;;;;;;;;;;;;;;;;2132697;27;20389;-42
2022/10/07 00:21:42;;;;;;;;;;;;;;;;;;2132160;27;19927;-42
2022/10/07 00:22:42;;;;;;;;;;;;;;;;;;2132523;27;19974;-42
2022/10/07 00:23:43;;;;;;;;;;;;;;;;;;2132791;27;20017;-42
2022/10/07 00:24:44;;;;;;;;;;;;;;;;;;2132651;27;19962;-42
2022/10/07 00:25:45;;;;;;;;;;;;;;;;;;2132887;27;20014;-42
2022/10/07 00:26:46;;;;;;;;;;;;;;;;;;2132604;27;20279;-42
2022/10/07 00:27:49;;;;;;;;;;;;;;;;;;2132700;27;19923;-42
2022/10/07 00:28:49;;;;;;;;;;;;;;;;;;2132795;27;19923;-42
2022/10/07 00:29:50;;;;;;;;;;;;;;;;;;2132881;27;19934;-42
2022/10/07 00:30:51;;;;;;;;;;;;;;;;;;2132651;27;19970;-42
2022/10/07 00:31:53;;;;;;;;;;;;;;;;;;2132465;27;19923;-42
2022/10/07 00:32:57;;;;;;;;;;;;;;;;;;2132621;27;20437;-42
2022/10/07 00:33:58;;;;;;;;;;;;;;;;;;2132592;27;20051;-42
2022/10/07 00:34:59;;;;;;;;;;;;;;;;;;2132678;27;19923;-42
2022/10/07 00:35:59;;;;;;;;;;;;;;;;;;2132725;27;20022;-42
2022/10/07 00:37:00;;;;;;;;;;;;;;;;;;2132596;27;19927;-43
2022/10/07 00:38:01;;;;;;;;;;;;;;;;;;2132679;27;19958;-42
2022/10/07 00:39:02;;;;;;;;;;;;;;;;;;2132648;27;19926;-42
2022/10/07 00:40:03;;;;;;;;;;;;;;;;;;2132660;27;19970;-42
2022/10/07 00:41:04;;;;;;;;;;;;;;;;;;2132594;27;20022;-42
2022/10/07 00:42:05;;;;;;;;;;;;;;;;;;2132448;27;19930;-42
2022/10/07 00:43:05;;;;;;;;;;;;;;;;;;2132432;27;19980;-42
2022/10/07 00:44:06;;;;;;;;;;;;;;;;;;2132553;27;19923;-42
2022/10/07 00:45:07;;;;;;;;;;;;;;;;;;2132449;27;19930;-42
2022/10/07 00:46:08;;;;;;;;;;;;;;;;;;2132631;27;20017;-42
2022/10/07 00:47:09;;;;;;;;;;;;;;;;;;2132467;27;20380;-42
2022/10/07 00:48:10;;;;;;;;;;;;;;;;;;2132526;27;19930;-42
2022/10/07 00:49:10;;;;;;;;;;;;;;;;;;2132480;27;19927;-42
2022/10/07 00:50:11;;;;;;;;;;;;;;;;;;2132979;27;20022;-43
2022/10/07 00:51:14;;;;;;;;;;;;;;;;;;2132685;27;19968;-43
2022/10/07 00:52:15;;;;;;;;;;;;;;;;;;2132434;27;19924;-43
2022/10/07 00:53:16;;;;;;;;;;;;;;;;;;2132565;27;19934;-43
2022/10/07 00:54:17;;;;;;;;;;;;;;;;;;2132468;27;20362;-44
2022/10/07 00:55:17;;;;;;;;;;;;;;;;;;2132597;27;19923;-43
2022/10/07 00:56:18;;;;;;;;;;;;;;;;;;2132590;27;19930;-43
2022/10/07 00:57:20;;;;;;;;;;;;;;;;;;2132498;27;20035;-44
2022/10/07 00:58:22;;;;;;;;;;;;;;;;;;2132565;27;19927;-44
2022/10/07 00:59:22;;;;;;;;;;;;;;;;;;2132581;27;19930;-44
2022/10/07 01:00:23;;;;;;;;;;;;;;;;;;2132381;27;19930;-43
2022/10/07 01:01:24;;;;;;;;;;;;;;;;;;2132456;27;19923;-43
2022/10/07 01:02:25;;;;;;;;;;;;;;;;;;2132450;27;19937;-44
2022/10/07 01:03:26;;;;;;;;;;;;;;;;;;2132373;27;19927;-44
2022/10/07 01:04:27;;;;;;;;;;;;;;;;;;2132571;27;19982;-44
2022/10/07 01:05:28;;;;;;;;;;;;;;;;;;2132371;27;19923;-43
2022/10/07 01:06:29;;;;;;;;;;;;;;;;;;2132459;27;19923;-43
2022/10/07 01:07:30;;;;;;;;;;;;;;;;;;2132489;27;20323;-44
2022/10/07 01:08:31;;;;;;;;;;;;;;;;;;2129702;27;19994;-44
2022/10/07 01:09:31;;;;;;;;;;;;;;;;;;2123852;28;19986;-44
2022/10/07 01:10:32;;;;;;;;;;;;;;;;;;2123844;28;20360;-44
2022/10/07 01:11:33;;;;;;;;;;;;;;;;;;2127883;27;20018;-44
2022/10/07 01:12:34;;;;;;;;;;;;;;;;;;2132258;27;19975;-44
2022/10/07 01:13:35;;;;;;;;;;;;;;;;;;2132467;27;19971;-44
2022/10/07 01:14:37;;;;;;;;;;;;;;;;;;2132468;27;20141;-44
2022/10/07 01:15:38;;;;;;;;;;;;;;;;;;2132465;27;19923;-44
2022/10/07 01:16:39;;;;;;;;;;;;;;;;;;2132241;27;20265;-44
2022/10/07 01:17:40;;;;;;;;;;;;;;;;;;2132358;27;20367;-44
2022/10/07 01:18:41;;;;;;;;;;;;;;;;;;2132261;27;19929;-43
2022/10/07 01:19:41;;;;;;;;;;;;;;;;;;2132280;27;19931;-43
2022/10/07 01:20:44;;;;;;;;;;;;;;;;;;2132294;27;19931;-43
2022/10/07 01:21:44;;;;;;;;;;;;;;;;;;2132206;27;19923;-44
2022/10/07 01:22:45;;;;;;;;;;;;;;;;;;2132190;27;19923;-44
2022/10/07 01:23:46;;;;;;;;;;;;;;;;;;2132278;27;20494;-44
2022/10/07 01:24:47;;;;;;;;;;;;;;;;;;2132430;27;20025;-44
2022/10/07 01:25:48;;;;;;;;;;;;;;;;;;2132286;27;20421;-44
2022/10/07 01:26:50;;;;;;;;;;;;;;;;;;2132328;27;19923;-44
2022/10/07 01:27:50;;;;;;;;;;;;;;;;;;2132317;27;20378;-43
2022/10/07 01:28:51;;;;;;;;;;;;;;;;;;2132399;27;19958;-43
2022/10/07 01:29:54;;;;;;;;;;;;;;;;;;2132319;27;20389;-44
2022/10/07 01:30:56;;;;;;;;;;;;;;;;;;2132264;27;19931;-44
2022/10/07 01:31:57;;;;;;;;;;;;;;;;;;2132208;27;19923;-43
2022/10/07 01:33:00;;;;;;;;;;;;;;;;;;2131663;27;19923;-42
2022/10/07 01:34:00;;;;;;;;;;;;;;;;;;2132021;27;19927;-42
2022/10/07 01:35:01;;;;;;;;;;;;;;;;;;2132426;27;19923;-42
2022/10/07 01:36:02;;;;;;;;;;;;;;;;;;2132231;27;19974;-42
2022/10/07 01:37:03;;;;;;;;;;;;;;;;;;2132177;27;20006;-42
2022/10/07 01:38:04;;;;;;;;;;;;;;;;;;2132180;27;20433;-41
2022/10/07 01:39:05;;;;;;;;;;;;;;;;;;2132088;27;19923;-42
2022/10/07 01:40:06;;;;;;;;;;;;;;;;;;2132399;27;19923;-42
2022/10/07 01:41:06;;;;;;;;;;;;;;;;;;2132236;27;20429;-42
2022/10/07 01:42:07;;;;;;;;;;;;;;;;;;2132329;27;19923;-42
2022/10/07 01:43:08;;;;;;;;;;;;;;;;;;2132146;27;19923;-41
2022/10/07 01:44:09;;;;;;;;;;;;;;;;;;2132240;27;19923;-42
2022/10/07 01:45:10;;;;;;;;;;;;;;;;;;2132156;27;19966;-42
2022/10/07 01:46:11;;;;;;;;;;;;;;;;;;2132106;27;19934;-42
2022/10/07 01:47:12;;;;;;;;;;;;;;;;;;2132271;27;19923;-42
2022/10/07 01:48:12;;;;;;;;;;;;;;;;;;2132126;27;20023;-42
2022/10/07 01:49:13;;;;;;;;;;;;;;;;;;2132520;27;20017;-42
2022/10/07 01:50:14;;;;;;;;;;;;;;;;;;2132252;27;20347;-42
2022/10/07 01:51:15;;;;;;;;;;;;;;;;;;2132182;27;20368;-41
2022/10/07 01:52:16;;;;;;;;;;;;;;;;;;2132080;27;19927;-42
2022/10/07 01:53:17;;;;;;;;;;;;;;;;;;2132190;27;19930;-41
2022/10/07 01:54:18;;;;;;;;;;;;;;;;;;2132246;27;20372;-41
2022/10/07 01:55:18;;;;;;;;;;;;;;;;;;2132141;27;19924;-41
2022/10/07 01:56:19;;;;;;;;;;;;;;;;;;2132288;27;19930;-42
2022/10/07 01:57:20;;;;;;;;;;;;;;;;;;2132103;27;19967;-42
2022/10/07 01:58:21;;;;;;;;;;;;;;;;;;2132195;27;19934;-41
2022/10/07 01:59:22;;;;;;;;;;;;;;;;;;2132041;27;20412;-41
2022/10/07 02:00:23;;;;;;;;;;;;;;;;;;2132372;27;19923;-41
2022/10/07 02:01:24;;;;;;;;;;;;;;;;;;2131879;27;19923;-41
2022/10/07 02:02:27;;;;;;;;;;;;;;;;;;2132226;27;19966;-44
2022/10/07 02:03:28;;;;;;;;;;;;;;;;;;2131969;27;19930;-44
2022/10/07 02:04:29;;;;;;;;;;;;;;;;;;2131790;27;20360;-44
2022/10/07 02:05:30;;;;;;;;;;;;;;;;;;2123535;28;19924;-44
2022/10/07 02:06:31;;;;;;;;;;;;;;;;;;2123354;27;19935;-43
2022/10/07 02:07:32;;;;;;;;;;;;;;;;;;2123579;28;19975;-44
2022/10/07 02:08:33;;;;;;;;;;;;;;;;;;2123416;28;20322;-45
2022/10/07 02:09:34;;;;;;;;;;;;;;;;;;2123368;28;19923;-44
2022/10/07 02:10:35;;;;;;;;;;;;;;;;;;2123381;28;19973;-44
2022/10/07 02:11:36;;;;;;;;;;;;;;;;;;2127881;27;19923;-43
2022/10/07 02:12:37;;;;;;;;;;;;;;;;;;2131912;27;19923;-44
2022/10/07 02:13:38;;;;;;;;;;;;;;;;;;2132133;27;19930;-43
2022/10/07 02:14:38;;;;;;;;;;;;;;;;;;2132078;27;19923;-41
2022/10/07 02:15:39;;;;;;;;;;;;;;;;;;2131973;27;20009;-42
2022/10/07 02:16:40;;;;;;;;;;;;;;;;;;2131919;27;20349;-42
2022/10/07 02:17:41;;;;;;;;;;;;;;;;;;2131870;27;19927;-41
2022/10/07 02:18:42;;;;;;;;;;;;;;;;;;2132059;27;19927;-41
2022/10/07 02:19:43;;;;;;;;;;;;;;;;;;2131869;27;19923;-41
2022/10/07 02:20:44;;;;;;;;;;;;;;;;;;2132063;27;19923;-41
2022/10/07 02:21:45;;;;;;;;;;;;;;;;;;2131835;27;19929;-41
2022/10/07 02:22:46;;;;;;;;;;;;;;;;;;2132007;27;20264;-41
2022/10/07 02:23:47;;;;;;;;;;;;;;;;;;2131879;27;20288;-41
2022/10/07 02:24:48;;;;;;;;;;;;;;;;;;2131843;27;19930;-41
2022/10/07 02:25:49;;;;;;;;;;;;;;;;;;2131909;27;19923;-41
2022/10/07 02:26:49;;;;;;;;;;;;;;;;;;2131809;27;20380;-42
2022/10/07 02:27:50;;;;;;;;;;;;;;;;;;2131729;27;20396;-41
2022/10/07 02:28:51;;;;;;;;;;;;;;;;;;2131894;27;19934;-42
2022/10/07 02:29:52;;;;;;;;;;;;;;;;;;2131920;27;19923;-42
2022/10/07 02:30:53;;;;;;;;;;;;;;;;;;2131795;27;19923;-42
2022/10/07 02:31:54;;;;;;;;;;;;;;;;;;2131844;27;19923;-42
2022/10/07 02:32:54;;;;;;;;;;;;;;;;;;2131897;27;19923;-42
2022/10/07 02:33:56;;;;;;;;;;;;;;;;;;2131881;27;19928;-41
2022/10/07 02:34:56;;;;;;;;;;;;;;;;;;2131868;27;19946;-42
2022/10/07 02:35:57;;;;;;;;;;;;;;;;;;2131987;27;19930;-42
2022/10/07 02:36:59;;;;;;;;;;;;;;;;;;2131894;27;19923;-42
2022/10/07 02:38:00;;;;;;;;;;;;;;;;;;2131789;27;20361;-42
2022/10/07 02:39:01;;;;;;;;;;;;;;;;;;2131813;27;19952;-42
2022/10/07 02:40:02;;;;;;;;;;;;;;;;;;2131886;27;19923;-41
2022/10/07 02:41:06;;;;;;;;;;;;;;;;;;2131956;27;20014;-41
2022/10/07 02:42:07;;;;;;;;;;;;;;;;;;2131721;27;20321;-41
2022/10/07 02:43:07;;;;;;;;;;;;;;;;;;2131746;27;19950;-42
2022/10/07 02:44:09;;;;;;;;;;;;;;;;;;2131949;27;19950;-41
2022/10/07 02:45:10;;;;;;;;;;;;;;;;;;2134510;27;19923;-41
2022/10/07 02:46:11;;;;;;;;;;;;;;;;;;2134680;27;20431;-41
2022/10/07 02:47:13;;;;;;;;;;;;;;;;;;2134760;27;19927;-41
2022/10/07 02:48:14;;;;;;;;;;;;;;;;;;2134796;27;19923;-42
2022/10/07 02:49:14;;;;;;;;;;;;;;;;;;2134574;27;19923;-41
2022/10/07 02:50:15;;;;;;;;;;;;;;;;;;2134616;27;19970;-41
2022/10/07 02:51:17;;;;;;;;;;;;;;;;;;2134623;27;19979;-41
2022/10/07 02:52:21;;;;;;;;;;;;;;;;;;2134965;27;19935;-41
2022/10/07 02:53:22;;;;;;;;;;;;;;;;;;2134742;27;20372;-42
2022/10/07 02:54:23;;;;;;;;;;;;;;;;;;2134677;27;19923;-41
2022/10/07 02:55:24;;;;;;;;;;;;;;;;;;2134546;27;19923;-42
2022/10/07 02:56:25;;;;;;;;;;;;;;;;;;2134522;27;19946;-41
2022/10/07 02:57:26;;;;;;;;;;;;;;;;;;2134485;27;19970;-42
2022/10/07 02:58:27;;;;;;;;;;;;;;;;;;2134818;27;20383;-44
2022/10/07 02:59:27;;;;;;;;;;;;;;;;;;2134692;27;19923;-44
2022/10/07 03:00:28;;;;;;;;;;;;;;;;;;2134542;27;20451;-44
2022/10/07 03:01:29;;;;;;;;;;;;;;;;;;2127605;27;19975;-44
2022/10/07 03:02:30;;;;;;;;;;;;;;;;;;2125944;27;19930;-44
2022/10/07 03:03:31;;;;;;;;;;;;;;;;;;2126003;27;19924;-44
2022/10/07 03:04:32;;;;;;;;;;;;;;;;;;2125956;27;20391;-44
2022/10/07 03:05:32;;;;;;;;;;;;;;;;;;2126085;27;20372;-43
2022/10/07 03:06:33;;;;;;;;;;;;;;;;;;2126123;27;19986;-43
2022/10/07 03:07:34;;;;;;;;;;;;;;;;;;2125920;27;19923;-45
2022/10/07 03:08:35;;;;;;;;;;;;;;;;;;2126034;27;20049;-45
2022/10/07 03:09:35;;;;;;;;;;;;;;;;;;2125884;27;20366;-44
2022/10/07 03:10:36;;;;;;;;;;;;;;;;;;2126058;27;19929;-44
2022/10/07 03:11:37;;;;;;;;;;;;;;;;;;2130657;27;20337;-44
2022/10/07 03:12:38;;;;;;;;;;;;;;;;;;2134728;27;20038;-45
2022/10/07 03:13:39;;;;;;;;;;;;;;;;;;2134444;27;20375;-44
2022/10/07 03:14:40;;;;;;;;;;;;;;;;;;2134686;27;19923;-45
2022/10/07 03:15:41;;;;;;;;;;;;;;;;;;2134506;27;20000;-44
2022/10/07 03:16:43;;;;;;;;;;;;;;;;;;2134645;27;20469;-45
2022/10/07 03:17:44;;;;;;;;;;;;;;;;;;2134439;27;19930;-44
2022/10/07 03:18:45;;;;;;;;;;;;;;;;;;2134439;27;20387;-45
2022/10/07 03:19:46;;;;;;;;;;;;;;;;;;2134544;27;19923;-44
2022/10/07 03:20:47;;;;;;;;;;;;;;;;;;2134496;27;19922;-44
2022/10/07 03:21:48;;;;;;;;;;;;;;;;;;2134352;27;19923;-45
2022/10/07 03:22:49;;;;;;;;;;;;;;;;;;2134369;27;20014;-44
2022/10/07 03:23:51;;;;;;;;;;;;;;;;;;2134495;27;19923;-44
2022/10/07 03:24:53;;;;;;;;;;;;;;;;;;2134219;27;19931;-44
2022/10/07 03:25:53;;;;;;;;;;;;;;;;;;2134462;27;19945;-44
2022/10/07 03:26:55;;;;;;;;;;;;;;;;;;2134375;27;20025;-44
2022/10/07 03:27:57;;;;;;;;;;;;;;;;;;2134306;27;19930;-44
2022/10/07 03:28:58;;;;;;;;;;;;;;;;;;2134473;27;19930;-44
2022/10/07 03:29:59;;;;;;;;;;;;;;;;;;2134614;27;19935;-44
2022/10/07 03:31:00;;;;;;;;;;;;;;;;;;2134521;27;19952;-44
2022/10/07 03:32:01;;;;;;;;;;;;;;;;;;2134317;27;19927;-44
2022/10/07 03:33:02;;;;;;;;;;;;;;;;;;2134396;27;20022;-44
2022/10/07 03:34:02;;;;;;;;;;;;;;;;;;2134312;27;19934;-43
2022/10/07 03:35:03;;;;;;;;;;;;;;;;;;2134522;27;19930;-43
2022/10/07 03:36:04;;;;;;;;;;;;;;;;;;2134360;27;19929;-43
2022/10/07 03:37:05;;;;;;;;;;;;;;;;;;2134494;27;19923;-43
2022/10/07 03:38:07;;;;;;;;;;;;;;;;;;2134374;27;20368;-43
2022/10/07 03:39:08;;;;;;;;;;;;;;;;;;2134516;27;19967;-43
2022/10/07 03:40:09;;;;;;;;;;;;;;;;;;2134588;27;19923;-43
2022/10/07 03:41:10;;;;;;;;;;;;;;;;;;2134552;27;19923;-43
2022/10/07 03:42:10;;;;;;;;;;;;;;;;;;2134222;27;19923;-43
2022/10/07 03:43:11;;;;;;;;;;;;;;;;;;2134172;27;20025;-43
2022/10/07 03:44:13;;;;;;;;;;;;;;;;;;2134435;27;19935;-44
2022/10/07 03:45:14;;;;;;;;;;;;;;;;;;2134519;27;19923;-41
2022/10/07 03:46:16;;;;;;;;;;;;;;;;;;2134553;27;20030;-44
2022/10/07 03:47:17;;;;;;;;;;;;;;;;;;2134160;27;20273;-43
2022/10/07 03:48:17;;;;;;;;;;;;;;;;;;2134450;27;19969;-43
2022/10/07 03:49:19;;;;;;;;;;;;;;;;;;2134242;27;20287;-43
2022/10/07 03:50:19;;;;;;;;;;;;;;;;;;2134317;27;19923;-43
2022/10/07 03:51:20;;;;;;;;;;;;;;;;;;2134378;27;19929;-43
2022/10/07 03:52:21;;;;;;;;;;;;;;;;;;2134485;27;20022;-41
2022/10/07 03:53:22;;;;;;;;;;;;;;;;;;2134406;27;20014;-41
2022/10/07 03:54:23;;;;;;;;;;;;;;;;;;2134164;27;19988;-41
2022/10/07 03:55:24;;;;;;;;;;;;;;;;;;2134510;27;19996;-42
2022/10/07 03:56:24;;;;;;;;;;;;;;;;;;2132012;27;19930;-43
2022/10/07 03:58:41;;;;;;;;;;;;;;;;;;2119549;27;19975;-43
2022/10/07 03:59:42;;;;;;;;;;;;;;;;;;2132923;27;20412;-44
2022/10/07 04:00:43;;;;;;;;;;;;;;;;;;2133096;27;19940;-44
2022/10/07 04:01:43;;;;;;;;;;;;;;;;;;2132880;27;19975;-44
2022/10/07 04:02:44;;;;;;;;;;;;;;;;;;2132673;27;20326;-44
2022/10/07 04:03:46;;;;;;;;;;;;;;;;;;2132756;27;19966;-45
2022/10/07 04:04:47;;;;;;;;;;;;;;;;;;2132753;27;19923;-44
2022/10/07 04:05:48;;;;;;;;;;;;;;;;;;2132999;27;20423;-43
2022/10/07 04:06:49;;;;;;;;;;;;;;;;;;2132705;27;19931;-43
2022/10/07 04:07:49;;;;;;;;;;;;;;;;;;2132752;27;19949;-43
2022/10/07 04:08:50;;;;;;;;;;;;;;;;;;2132919;27;19929;-43
2022/10/07 04:09:51;;;;;;;;;;;;;;;;;;2132702;27;19923;-43
2022/10/07 04:10:52;;;;;;;;;;;;;;;;;;2133100;27;19927;-44
2022/10/07 04:11:52;;;;;;;;;;;;;;;;;;2125327;27;20292;-44
2022/10/07 04:12:53;;;;;;;;;;;;;;;;;;2124291;28;19923;-43
2022/10/07 04:13:54;;;;;;;;;;;;;;;;;;2124305;28;19931;-43
2022/10/07 04:14:55;;;;;;;;;;;;;;;;;;2124157;28;19967;-43
2022/10/07 04:15:56;;;;;;;;;;;;;;;;;;2124499;28;19923;-47
2022/10/07 04:16:57;;;;;;;;;;;;;;;;;;2124279;27;19972;-45
2022/10/07 04:17:57;;;;;;;;;;;;;;;;;;2124324;28;19931;-45
2022/10/07 04:18:59;;;;;;;;;;;;;;;;;;2124306;28;20338;-44
2022/10/07 04:19:59;;;;;;;;;;;;;;;;;;2124099;28;19924;-43
2022/10/07 04:21:00;;;;;;;;;;;;;;;;;;2130149;27;19923;-44
2022/10/07 04:22:01;;;;;;;;;;;;;;;;;;2132721;27;19927;-44
2022/10/07 04:23:08;;;;;;;;;;;;;;;;;;2132914;27;19923;-44
2022/10/07 04:24:08;;;;;;;;;;;;;;;;;;2133065;27;19974;-44
2022/10/07 04:26:29;;;;;;;;;;;;;;;;;;2132724;27;19929;-44
2022/10/07 04:27:30;;;;;;;;;;;;;;;;;;2132593;27;19923;-43
2022/10/07 04:28:51;;;;;;;;;;;;;;;;;;2132719;27;20070;-44
2022/10/07 04:29:51;;;;;;;;;;;;;;;;;;2132606;27;19989;-44
2022/10/07 04:30:52;;;;;;;;;;;;;;;;;;2132733;27;19971;-44
2022/10/07 04:31:54;;;;;;;;;;;;;;;;;;2132538;27;19929;-44
2022/10/07 04:32:55;;;;;;;;;;;;;;;;;;2132933;27;20006;-46
2022/10/07 04:33:56;;;;;;;;;;;;;;;;;;2132855;27;19923;-45
2022/10/07 04:34:56;;;;;;;;;;;;;;;;;;2132569;27;19923;-45
2022/10/07 04:35:57;;;;;;;;;;;;;;;;;;2132580;27;19975;-45
2022/10/07 04:36:59;;;;;;;;;;;;;;;;;;2132443;27;19946;-45
2022/10/07 04:38:00;;;;;;;;;;;;;;;;;;2132680;27;19930;-45
2022/10/07 04:39:01;;;;;;;;;;;;;;;;;;2132991;27;19945;-44
2022/10/07 04:40:02;;;;;;;;;;;;;;;;;;2132657;27;19956;-44
2022/10/07 04:41:03;;;;;;;;;;;;;;;;;;2132519;27;19923;-44
2022/10/07 04:42:03;;;;;;;;;;;;;;;;;;2132647;27;20164;-44
2022/10/07 04:43:21;;;;;;;;;;;;;;;;;;2132430;27;19934;-44
2022/10/07 04:44:22;;;;;;;;;;;;;;;;;;2132526;27;19934;-44
2022/10/07 04:45:23;;;;;;;;;;;;;;;;;;2132593;27;19923;-44
2022/10/07 04:46:24;;;;;;;;;;;;;;;;;;2132419;27;19923;-45
2022/10/07 04:47:24;;;;;;;;;;;;;;;;;;2132833;27;19923;-46
2022/10/07 04:48:26;;;;;;;;;;;;;;;;;;2132900;27;20371;-46
2022/10/07 04:49:26;;;;;;;;;;;;;;;;;;2132616;27;19930;-45
2022/10/07 04:50:27;;;;;;;;;;;;;;;;;;2132886;27;19923;-45
2022/10/07 04:51:29;;;;;;;;;;;;;;;;;;2132813;27;20445;-43
2022/10/07 04:52:30;;;;;;;;;;;;;;;;;;2132663;27;20380;-45
2022/10/07 04:53:31;;;;;;;;;;;;;;;;;;2132475;27;20017;-45
2022/10/07 04:54:32;;;;;;;;;;;;;;;;;;2132545;27;20307;-45
2022/10/07 04:55:34;;;;;;;;;;;;;;;;;;2132747;27;19999;-44
2022/10/07 04:56:35;;;;;;;;;;;;;;;;;;2132347;27;19923;-44
2022/10/07 04:57:36;;;;;;;;;;;;;;;;;;2132385;27;19923;-44
2022/10/07 04:58:37;;;;;;;;;;;;;;;;;;2132456;27;19931;-44
2022/10/07 04:59:37;;;;;;;;;;;;;;;;;;2132625;27;20067;-45
2022/10/07 05:00:43;;;;;;;;;;;;;;;;;;2132985;27;19933;-44
2022/10/07 05:01:44;;;;;;;;;;;;;;;;;;2132352;27;20010;-44
2022/10/07 05:02:49;;;;;;;;;;;;;;;;;;2132436;27;20413;-44
2022/10/07 05:03:50;;;;;;;;;;;;;;;;;;2132659;27;19923;-44
2022/10/07 05:04:50;;;;;;;;;;;;;;;;;;2132764;27;19972;-44
2022/10/07 05:05:51;;;;;;;;;;;;;;;;;;2132671;27;19934;-45
2022/10/07 05:06:52;;;;;;;;;;;;;;;;;;2132474;27;19978;-45
2022/10/07 05:07:53;;;;;;;;;;;;;;;;;;2132290;27;19927;-45
2022/10/07 05:08:54;;;;;;;;;;;;;;;;;;2132555;27;20326;-45
2022/10/07 05:09:55;;;;;;;;;;;;;;;;;;2132456;27;20036;-45
2022/10/07 05:10:55;;;;;;;;;;;;;;;;;;2132390;27;20010;-45
2022/10/07 05:11:56;;;;;;;;;;;;;;;;;;2124546;27;19924;-45
2022/10/07 05:12:57;;;;;;;;;;;;;;;;;;2123816;28;19923;-44
2022/10/07 05:14:00;;;;;;;;;;;;;;;;;;2123789;28;19927;-45
2022/10/07 05:15:03;;;;;;;;;;;;;;;;;;2123748;28;19992;-45
2022/10/07 05:16:06;;;;;;;;;;;;;;;;;;2123903;28;19924;-45
2022/10/07 05:17:07;;;;;;;;;;;;;;;;;;2128755;27;19930;-44
2022/10/07 05:18:08;;;;;;;;;;;;;;;;;;2132300;27;19922;-44
2022/10/07 05:19:09;;;;;;;;;;;;;;;;;;2132264;27;19983;-44
2022/10/07 05:20:12;;;;;;;;;;;;;;;;;;2132756;27;19930;-45
2022/10/07 05:21:14;;;;;;;;;;;;;;;;;;2132312;27;20283;-44
2022/10/07 05:22:14;;;;;;;;;;;;;;;;;;2132119;27;19929;-44
2022/10/07 05:23:15;;;;;;;;;;;;;;;;;;2132304;27;19946;-43
2022/10/07 05:24:16;;;;;;;;;;;;;;;;;;2132280;27;19926;-44
2022/10/07 05:25:18;;;;;;;;;;;;;;;;;;2132369;27;19923;-44
2022/10/07 05:26:19;;;;;;;;;;;;;;;;;;2132442;27;19971;-45
2022/10/07 05:27:20;;;;;;;;;;;;;;;;;;2132145;27;20060;-44
2022/10/07 05:28:21;;;;;;;;;;;;;;;;;;2132204;27;20329;-44
2022/10/07 05:29:22;;;;;;;;;;;;;;;;;;2132243;27;19957;-44
2022/10/07 05:30:23;;;;;;;;;;;;;;;;;;2132372;27;19968;-43
2022/10/07 05:31:25;;;;;;;;;;;;;;;;;;2132127;27;19927;-43
2022/10/07 05:32:26;;;;;;;;;;;;;;;;;;2132336;27;19923;-43
2022/10/07 05:33:30;;;;;;;;;;;;;;;;;;2132196;27;19929;-44
2022/10/07 05:34:31;;;;;;;;;;;;;;;;;;2132532;27;20014;-44
2022/10/07 05:35:32;;;;;;;;;;;;;;;;;;2132277;27;20304;-43
2022/10/07 05:36:33;;;;;;;;;;;;;;;;;;2132241;27;19950;-43
2022/10/07 05:37:34;;;;;;;;;;;;;;;;;;2132242;27;19923;-44
2022/10/07 05:38:35;;;;;;;;;;;;;;;;;;2132193;27;19946;-44
2022/10/07 05:39:36;;;;;;;;;;;;;;;;;;2132110;27;20395;-44
2022/10/07 05:40:37;;;;;;;;;;;;;;;;;;2132119;27;19930;-44
2022/10/07 05:41:38;;;;;;;;;;;;;;;;;;2132172;27;19927;-43
2022/10/07 05:42:45;;;;;;;;;;;;;;;;;;2132298;27;19923;-43
2022/10/07 05:43:47;;;;;;;;;;;;;;;;;;2132273;27;19954;-45
2022/10/07 05:44:47;;;;;;;;;;;;;;;;;;2132086;27;19923;-44
2022/10/07 05:45:48;;;;;;;;;;;;;;;;;;2132314;27;19923;-43
2022/10/07 05:46:49;;;;;;;;;;;;;;;;;;2132290;27;19924;-44
2022/10/07 05:47:50;;;;;;;;;;;;;;;;;;2132160;27;20376;-43
2022/10/07 05:48:51;;;;;;;;;;;;;;;;;;2132164;27;19957;-44
2022/10/07 05:49:57;;;;;;;;;;;;;;;;;;2132178;27;20420;-45
2022/10/07 05:50:57;;;;;;;;;;;;;;;;;;2132182;27;20275;-45
2022/10/07 05:51:58;;;;;;;;;;;;;;;;;;2132390;27;20055;-44
2022/10/07 05:52:59;;;;;;;;;;;;;;;;;;2132037;27;19930;-44
2022/10/07 05:54:00;;;;;;;;;;;;;;;;;;2132300;27;19959;-44
2022/10/07 05:55:01;;;;;;;;;;;;;;;;;;2132177;27;20318;-44
2022/10/07 05:56:02;;;;;;;;;;;;;;;;;;2132219;27;20309;-44
2022/10/07 05:57:03;;;;;;;;;;;;;;;;;;2132124;27;19923;-43
2022/10/07 05:58:04;;;;;;;;;;;;;;;;;;2132152;27;20329;-43
2022/10/07 05:59:05;;;;;;;;;;;;;;;;;;2132251;27;19923;-43
2022/10/07 06:00:06;;;;;;;;;;;;;;;;;;2132163;27;20026;-44
2022/10/07 06:01:06;;;;;;;;;;;;;;;;;;2132142;27;19945;-43
2022/10/07 06:02:13;;;;;;;;;;;;;;;;;;2132027;27;19923;-45
2022/10/07 06:03:14;;;;;;;;;;;;;;;;;;2132050;27;19927;-43
2022/10/07 06:04:15;;;;;;;;;;;;;;;;;;2132197;27;19931;-43
2022/10/07 06:05:17;;;;;;;;;;;;;;;;;;2132303;27;19923;-45
2022/10/07 06:06:18;;;;;;;;;;;;;;;;;;2132021;27;19923;-43
2022/10/07 06:07:19;;;;;;;;;;;;;;;;;;2131966;27;19930;-43
2022/10/07 06:08:22;;;;;;;;;;;;;;;;;;2131960;27;20372;-44
2022/10/07 06:13:22;;;;;;;;;;;;;;;;;;2127996;27;19948;-45
2022/10/07 06:14:23;;;;;;;;;;;;;;;;;;2132105;27;19930;-45
2022/10/07 06:15:24;;;;;;;;;;;;;;;;;;2132308;27;19930;-44
2022/10/07 06:16:25;;;;;;;;;;;;;;;;;;2131766;27;20014;-45
2022/10/07 06:17:26;;;;;;;;;;;;;;;;;;2132043;27;20265;-44
2022/10/07 06:18:27;;;;;;;;;;;;;;;;;;2131914;27;19930;-44
2022/10/07 06:19:27;;;;;;;;;;;;;;;;;;2131403;27;20333;-45
2022/10/07 06:20:28;;;;;;;;;;;;;;;;;;2131899;27;19924;-45
2022/10/07 06:21:29;;;;;;;;;;;;;;;;;;2131958;27;19923;-45
2022/10/07 06:22:30;;;;;;;;;;;;;;;;;;2131991;27;20025;-44
2022/10/07 06:23:31;;;;;;;;;;;;;;;;;;2131838;27;19923;-45
2022/10/07 06:24:32;;;;;;;;;;;;;;;;;;2131971;27;20420;-45
2022/10/07 06:25:33;;;;;;;;;;;;;;;;;;2131875;27;19976;-45
2022/10/07 06:26:34;;;;;;;;;;;;;;;;;;2131778;27;19981;-46
2022/10/07 06:27:35;;;;;;;;;;;;;;;;;;2132661;27;19930;-44
2022/10/07 06:28:36;;;;;;;;;;;;;;;;;;2131851;27;19923;-44
2022/10/07 06:29:37;;;;;;;;;;;;;;;;;;2131854;27;19979;-44
2022/10/07 06:30:37;;;;;;;;;;;;;;;;;;2132080;27;19923;-44
2022/10/07 06:31:38;;;;;;;;;;;;;;;;;;2132096;27;20030;-44
2022/10/07 06:32:39;;;;;;;;;;;;;;;;;;2132090;27;19923;-44
2022/10/07 06:33:40;;;;;;;;;;;;;;;;;;2131813;27;19927;-44
2022/10/07 06:34:41;;;;;;;;;;;;;;;;;;2131980;27;19927;-45
2022/10/07 06:35:41;;;;;;;;;;;;;;;;;;2132496;27;19967;-44
2022/10/07 06:36:42;;;;;;;;;;;;;;;;;;2131705;27;19927;-45
2022/10/07 06:37:43;;;;;;;;;;;;;;;;;;2132363;27;19923;-44
2022/10/07 06:38:44;;;;;;;;;;;;;;;;;;2131979;27;19946;-45
2022/10/07 06:39:45;;;;;;;;;;;;;;;;;;2131889;27;19923;-45
2022/10/07 06:40:46;;;;;;;;;;;;;;;;;;2131771;27;20512;-46
2022/10/07 06:41:47;;;;;;;;;;;;;;;;;;2131884;27;19958;-45
2022/10/07 06:42:48;;;;;;;;;;;;;;;;;;2131701;27;20390;-45
2022/10/07 06:43:49;;;;;;;;;;;;;;;;;;2132072;27;20022;-44
2022/10/07 06:44:52;;;;;;;;;;;;;;;;;;2132049;27;20387;-45
2022/10/07 06:45:53;;;;;;;;;;;;;;;;;;2131896;27;20010;-45
2022/10/07 06:46:54;;;;;;;;;;;;;;;;;;2132171;27;20014;-45
2022/10/07 06:47:55;;;;;;;;;;;;;;;;;;2132159;27;19923;-46
2022/10/07 06:48:58;;;;;;;;;;;;;;;;;;2131756;27;19931;-45
2022/10/07 06:49:58;;;;;;;;;;;;;;;;;;2132366;27;20018;-45
2022/10/07 06:51:02;;;;;;;;;;;;;;;;;;2132440;27;19911;-45
2022/10/07 06:52:02;;;;;;;;;;;;;;;;;;2131761;27;19950;-45
2022/10/07 06:53:03;;;;;;;;;;;;;;;;;;2131806;27;20264;-45
2022/10/07 06:54:05;;;;;;;;;;;;;;;;;;2131775;27;19923;-45
2022/10/07 06:55:06;;;;;;;;;;;;;;;;;;2132147;27;19923;-45
2022/10/07 06:56:07;;;;;;;;;;;;;;;;;;2131852;27;19923;-45
2022/10/07 06:57:08;;;;;;;;;;;;;;;;;;2131785;27;19947;-45
2022/10/07 06:58:29;;;;;;;;;;;;;;;;;;2131739;27;20004;-46
2022/10/07 06:59:30;;;;;;;;;;;;;;;;;;2131824;27;19991;-45
2022/10/07 07:00:32;;;;;;;;;;;;;;;;;;2131778;27;19923;-46
2022/10/07 07:01:32;;;;;;;;;;;;;;;;;;2131727;27;19934;-45
2022/10/07 07:02:33;;;;;;;;;;;;;;;;;;2131700;27;20375;-45
2022/10/07 07:03:34;;;;;;;;;;;;;;;;;;2131793;27;19923;-45
2022/10/07 07:04:35;;;;;;;;;;;;;;;;;;2131780;27;19923;-46